createdAt,value
2018-06-05T00:00:30.388Z,17.75
2018-06-05T00:01:39.040Z,17.79
2018-06-05T00:02:47.686Z,17.75
2018-06-05T00:03:56.336Z,17.78
2018-06-05T00:05:04.981Z,17.72
2018-06-05T00:06:13.635Z,17.73
2018-06-05T00:07:22.283Z,17.76
2018-06-05T00:08:31.190Z,17.73
2018-06-05T00:09:39.833Z,17.73
2018-06-05T00:10:48.752Z,17.73
2018-06-05T00:11:57.677Z,17.75
2018-06-05T00:13:06.584Z,17.72
2018-06-05T00:14:15.225Z,17.71
2018-06-05T00:15:23.875Z,17.79
2018-06-05T00:16:32.522Z,17.73
2018-06-05T00:17:41.172Z,17.71
2018-06-05T00:18:49.817Z,17.73
2018-06-05T00:19:58.459Z,17.76
2018-06-05T00:21:07.110Z,17.75
2018-06-05T00:22:15.753Z,17.73
2018-06-05T00:23:24.405Z,17.73
2018-06-05T00:24:33.309Z,17.63
2018-06-05T00:25:41.958Z,17.6
2018-06-05T00:26:50.878Z,17.66
2018-06-05T00:27:59.517Z,17.6
2018-06-05T00:29:08.160Z,17.57
2018-06-05T00:30:16.809Z,17.65
2018-06-05T00:31:25.457Z,17.63
2018-06-05T00:32:34.112Z,17.52
2018-06-05T00:33:43.288Z,17.52
2018-06-05T00:34:52.197Z,17.5
2018-06-05T00:36:00.843Z,17.53
2018-06-05T00:37:09.494Z,17.42
2018-06-05T00:38:18.150Z,17.49
2018-06-05T00:39:26.794Z,17.46
2018-06-05T00:40:35.440Z,17.52
2018-06-05T00:41:44.085Z,17.47
2018-06-05T00:42:52.733Z,17.52
2018-06-05T00:44:01.381Z,17.44
2018-06-05T00:45:10.558Z,17.52
2018-06-05T00:46:19.214Z,17.47
2018-06-05T00:47:27.852Z,17.6
2018-06-05T00:48:36.501Z,17.56
2018-06-05T00:49:45.147Z,17.54
2018-06-05T00:50:53.807Z,17.42
2018-06-05T00:52:02.454Z,17.37
2018-06-05T00:53:11.096Z,17.41
2018-06-05T00:54:20.007Z,17.42
2018-06-05T00:55:28.916Z,17.38
2018-06-05T00:56:37.580Z,17.38
2018-06-05T00:57:46.218Z,17.35
2018-06-05T00:58:55.138Z,17.37
2018-06-05T01:00:03.776Z,17.38
2018-06-05T01:01:12.432Z,17.37
2018-06-05T01:02:21.081Z,17.37
2018-06-05T01:03:29.996Z,17.38
2018-06-05T01:04:38.641Z,17.38
2018-06-05T01:05:47.288Z,17.37
2018-06-05T01:06:55.932Z,17.34
2018-06-05T01:08:04.586Z,17.38
2018-06-05T01:09:13.484Z,17.34
2018-06-05T01:10:22.399Z,17.31
2018-06-05T01:11:31.051Z,17.38
2018-06-05T01:12:39.962Z,17.31
2018-06-05T01:13:48.614Z,17.37
2018-06-05T01:14:57.253Z,17.24
2018-06-05T01:16:06.172Z,17.28
2018-06-05T01:17:15.076Z,17.2
2018-06-05T01:18:23.732Z,17.12
2018-06-05T01:19:32.370Z,17.22
2018-06-05T01:20:41.021Z,17.28
2018-06-05T01:21:49.663Z,17.23
2018-06-05T01:22:58.319Z,17.3
2018-06-05T01:24:06.955Z,17.31
2018-06-05T01:25:15.604Z,17.3
2018-06-05T01:26:24.247Z,17.31
2018-06-05T01:27:32.902Z,17.31
2018-06-05T01:28:41.548Z,17.32
2018-06-05T01:29:50.190Z,17.24
2018-06-05T01:30:58.837Z,17.28
2018-06-05T01:32:07.484Z,17.2
2018-06-05T01:33:16.139Z,17.2
2018-06-05T01:34:24.780Z,17.24
2018-06-05T01:35:33.431Z,17.19
2018-06-05T01:36:42.072Z,17.22
2018-06-05T01:37:50.734Z,17.2
2018-06-05T01:38:59.372Z,17.24
2018-06-05T01:40:08.289Z,17.23
2018-06-05T01:41:16.928Z,17.2
2018-06-05T01:42:25.581Z,17.2
2018-06-05T01:43:34.231Z,17.2
2018-06-05T01:44:42.893Z,17.19
2018-06-05T01:45:51.525Z,17.22
2018-06-05T01:47:00.176Z,17.17
2018-06-05T01:48:09.086Z,17.14
2018-06-05T01:49:17.736Z,17.12
2018-06-05T01:50:26.389Z,17.14
2018-06-05T01:51:35.030Z,17.14
2018-06-05T01:52:43.676Z,17.05
2018-06-05T01:53:52.323Z,17.05
2018-06-05T01:55:00.977Z,17.04
2018-06-05T01:56:09.620Z,17.1
2018-06-05T01:57:18.268Z,17.05
2018-06-05T01:58:26.915Z,17.07
2018-06-05T01:59:35.830Z,17.01
2018-06-05T02:00:44.735Z,17.01
2018-06-05T02:01:53.384Z,17.02
2018-06-05T02:03:02.030Z,17.05
2018-06-05T02:04:10.682Z,17.05
2018-06-05T02:05:19.328Z,17.01
2018-06-05T02:06:27.975Z,17.02
2018-06-05T02:07:36.621Z,16.97
2018-06-05T02:08:45.532Z,16.98
2018-06-05T02:09:54.180Z,16.98
2018-06-05T02:11:02.826Z,16.95
2018-06-05T02:12:11.475Z,16.98
2018-06-05T02:13:20.120Z,16.98
2018-06-05T02:14:28.773Z,16.97
2018-06-05T02:15:37.423Z,16.97
2018-06-05T02:16:46.070Z,17.05
2018-06-05T02:17:54.711Z,16.99
2018-06-05T02:19:03.362Z,16.98
2018-06-05T02:20:12.006Z,16.89
2018-06-05T02:21:20.654Z,16.91
2018-06-05T02:22:29.295Z,16.83
2018-06-05T02:23:37.944Z,16.87
2018-06-05T02:24:46.603Z,16.86
2018-06-05T02:25:55.250Z,16.86
2018-06-05T02:27:03.898Z,16.8
2018-06-05T02:28:12.538Z,16.89
2018-06-05T02:29:21.190Z,16.84
2018-06-05T02:30:30.093Z,16.92
2018-06-05T02:31:38.746Z,16.83
2018-06-05T02:32:47.649Z,16.82
2018-06-05T02:33:56.558Z,16.84
2018-06-05T02:35:05.209Z,16.83
2018-06-05T02:36:13.862Z,16.87
2018-06-05T02:37:22.510Z,16.89
2018-06-05T02:38:31.161Z,16.83
2018-06-05T02:39:39.807Z,16.84
2018-06-05T02:40:48.448Z,16.84
2018-06-05T02:41:57.100Z,16.84
2018-06-05T02:43:06.011Z,16.86
2018-06-05T02:44:14.665Z,16.82
2018-06-05T02:45:23.843Z,16.91
2018-06-05T02:46:32.497Z,16.86
2018-06-05T02:47:41.668Z,16.8
2018-06-05T02:48:50.322Z,16.74
2018-06-05T02:49:58.972Z,16.73
2018-06-05T02:51:07.618Z,16.8
2018-06-05T02:52:16.266Z,16.74
2018-06-05T02:53:25.174Z,16.76
2018-06-05T02:54:34.091Z,16.73
2018-06-05T02:55:42.998Z,16.73
2018-06-05T02:56:51.920Z,16.72
2018-06-05T02:58:01.104Z,16.72
2018-06-05T02:59:09.756Z,16.69
2018-06-05T03:00:18.664Z,16.65
2018-06-05T03:01:27.571Z,16.74
2018-06-05T03:02:36.319Z,16.69
2018-06-05T03:03:45.367Z,16.68
2018-06-05T03:04:54.022Z,16.74
2018-06-05T03:06:02.679Z,16.74
2018-06-05T03:07:11.315Z,16.68
2018-06-05T03:08:20.516Z,16.69
2018-06-05T03:09:29.468Z,16.64
2018-06-05T03:10:38.644Z,16.74
2018-06-05T03:11:47.292Z,16.76
2018-06-05T03:12:55.935Z,16.68
2018-06-05T03:14:04.588Z,16.68
2018-06-05T03:15:13.235Z,16.73
2018-06-05T03:16:22.441Z,16.66
2018-06-05T03:17:31.082Z,16.69
2018-06-05T03:18:39.731Z,16.69
2018-06-05T03:19:48.376Z,16.69
2018-06-05T03:20:57.026Z,16.74
2018-06-05T03:22:05.675Z,16.69
2018-06-05T03:23:14.317Z,16.66
2018-06-05T03:24:22.962Z,16.73
2018-06-05T03:25:31.607Z,16.62
2018-06-05T03:26:40.260Z,16.66
2018-06-05T03:27:48.901Z,16.73
2018-06-05T03:28:57.810Z,16.62
2018-06-05T03:30:06.461Z,16.61
2018-06-05T03:31:15.120Z,16.57
2018-06-05T03:32:24.042Z,16.68
2018-06-05T03:33:32.954Z,16.66
2018-06-05T03:34:41.600Z,16.62
2018-06-05T03:35:50.511Z,16.64
2018-06-05T03:36:59.156Z,16.65
2018-06-05T03:38:07.800Z,16.64
2018-06-05T03:39:16.443Z,16.66
2018-06-05T03:40:25.088Z,16.58
2018-06-05T03:41:33.746Z,16.73
2018-06-05T03:42:42.388Z,16.61
2018-06-05T03:43:51.306Z,16.65
2018-06-05T03:44:59.938Z,16.68
2018-06-05T03:46:08.863Z,16.51
2018-06-05T03:47:17.504Z,16.58
2018-06-05T03:48:26.155Z,16.59
2018-06-05T03:49:34.792Z,16.58
2018-06-05T03:50:43.447Z,16.62
2018-06-05T03:51:52.091Z,16.62
2018-06-05T03:53:00.742Z,16.64
2018-06-05T03:54:09.379Z,16.72
2018-06-05T03:55:18.031Z,16.62
2018-06-05T03:56:26.702Z,16.61
2018-06-05T03:57:35.334Z,16.59
2018-06-05T03:58:43.985Z,16.65
2018-06-05T03:59:52.881Z,16.61
2018-06-05T04:01:01.534Z,16.65
2018-06-05T04:02:10.437Z,16.59
2018-06-05T04:03:19.127Z,16.62
2018-06-05T04:04:27.730Z,16.66
2018-06-05T04:05:36.382Z,16.64
2018-06-05T04:06:45.026Z,16.65
2018-06-05T04:07:53.682Z,16.62
2018-06-05T04:09:02.319Z,16.58
2018-06-05T04:10:10.969Z,16.57
2018-06-05T04:11:19.612Z,16.59
2018-06-05T04:12:28.266Z,16.69
2018-06-05T04:13:36.910Z,16.68
2018-06-05T04:14:45.554Z,16.64
2018-06-05T04:15:54.198Z,16.61
2018-06-05T04:17:02.842Z,16.61
2018-06-05T04:18:11.501Z,16.62
2018-06-05T04:19:20.145Z,16.61
2018-06-05T04:20:28.795Z,16.57
2018-06-05T04:21:37.451Z,16.59
2018-06-05T04:22:46.096Z,16.5
2018-06-05T04:23:54.740Z,16.55
2018-06-05T04:25:03.650Z,16.64
2018-06-05T04:26:12.289Z,16.59
2018-06-05T04:27:20.943Z,16.59
2018-06-05T04:28:29.587Z,16.64
2018-06-05T04:29:38.504Z,16.62
2018-06-05T04:30:47.143Z,16.59
2018-06-05T04:31:56.064Z,16.51
2018-06-05T04:33:04.980Z,16.55
2018-06-05T04:34:13.629Z,16.54
2018-06-05T04:35:22.280Z,16.54
2018-06-05T04:36:30.916Z,16.55
2018-06-05T04:37:39.841Z,16.5
2018-06-05T04:38:48.489Z,16.55
2018-06-05T04:39:57.407Z,16.47
2018-06-05T04:41:06.046Z,16.44
2018-06-05T04:42:14.696Z,16.47
2018-06-05T04:43:23.602Z,16.47
2018-06-05T04:44:32.529Z,16.41
2018-06-05T04:45:41.172Z,16.47
2018-06-05T04:46:49.824Z,16.36
2018-06-05T04:47:58.465Z,16.43
2018-06-05T04:49:07.115Z,16.43
2018-06-05T04:50:15.764Z,16.4
2018-06-05T04:51:24.413Z,16.44
2018-06-05T04:52:33.586Z,16.41
2018-06-05T04:53:42.234Z,16.46
2018-06-05T04:54:51.144Z,16.47
2018-06-05T04:55:59.789Z,16.4
2018-06-05T04:57:08.437Z,16.4
2018-06-05T04:58:17.073Z,16.44
2018-06-05T04:59:25.724Z,16.4
2018-06-05T05:00:34.372Z,16.37
2018-06-05T05:01:43.017Z,16.41
2018-06-05T05:02:51.922Z,16.43
2018-06-05T05:04:00.571Z,16.31
2018-06-05T05:05:09.216Z,16.29
2018-06-05T05:06:17.870Z,16.32
2018-06-05T05:07:26.519Z,16.37
2018-06-05T05:08:35.171Z,16.43
2018-06-05T05:09:43.820Z,16.39
2018-06-05T05:10:52.467Z,16.34
2018-06-05T05:12:01.115Z,16.39
2018-06-05T05:13:09.757Z,16.37
2018-06-05T05:14:18.406Z,16.39
2018-06-05T05:15:27.054Z,16.4
2018-06-05T05:16:35.703Z,16.41
2018-06-05T05:17:44.345Z,16.37
2018-06-05T05:18:52.990Z,16.36
2018-06-05T05:20:01.639Z,16.31
2018-06-05T05:21:10.556Z,16.4
2018-06-05T05:22:19.460Z,16.44
2018-06-05T05:23:28.378Z,16.4
2018-06-05T05:24:37.021Z,16.39
2018-06-05T05:25:45.673Z,16.41
2018-06-05T05:26:54.317Z,16.46
2018-06-05T05:28:03.224Z,16.46
2018-06-05T05:29:11.868Z,16.41
2018-06-05T05:30:20.781Z,16.41
2018-06-05T05:31:29.432Z,16.47
2018-06-05T05:32:38.079Z,16.46
2018-06-05T05:33:46.726Z,16.44
2018-06-05T05:34:55.368Z,16.5
2018-06-05T05:36:04.023Z,16.47
2018-06-05T05:37:12.927Z,16.61
2018-06-05T05:38:21.577Z,16.57
2018-06-05T05:39:30.217Z,16.59
2018-06-05T05:40:38.869Z,16.58
2018-06-05T05:41:47.515Z,16.64
2018-06-05T05:42:56.162Z,16.59
2018-06-05T05:44:04.801Z,16.61
2018-06-05T05:45:13.454Z,16.65
2018-06-05T05:46:22.103Z,16.61
2018-06-05T05:47:30.751Z,16.58
2018-06-05T05:48:39.400Z,16.59
2018-06-05T05:49:48.037Z,16.64
2018-06-05T05:50:56.689Z,16.72
2018-06-05T05:52:05.330Z,16.72
2018-06-05T05:53:13.985Z,16.58
2018-06-05T05:54:22.623Z,16.58
2018-06-05T05:55:31.277Z,16.54
2018-06-05T05:56:39.919Z,16.47
2018-06-05T05:57:48.574Z,16.49
2018-06-05T05:58:57.211Z,16.5
2018-06-05T06:00:05.860Z,16.54
2018-06-05T06:01:14.504Z,16.51
2018-06-05T06:02:23.162Z,16.59
2018-06-05T06:03:31.804Z,16.58
2018-06-05T06:04:40.454Z,16.66
2018-06-05T06:05:49.101Z,16.66
2018-06-05T06:06:57.745Z,16.64
2018-06-05T06:08:06.400Z,16.72
2018-06-05T06:09:15.041Z,16.62
2018-06-05T06:10:23.696Z,16.69
2018-06-05T06:11:32.332Z,16.69
2018-06-05T06:12:40.989Z,16.74
2018-06-05T06:13:49.636Z,16.65
2018-06-05T06:14:58.288Z,16.68
2018-06-05T06:16:07.192Z,16.74
2018-06-05T06:17:15.844Z,16.8
2018-06-05T06:18:24.490Z,16.8
2018-06-05T06:19:33.396Z,16.69
2018-06-05T06:20:42.033Z,16.76
2018-06-05T06:21:50.683Z,16.77
2018-06-05T06:22:59.337Z,16.79
2018-06-05T06:24:07.987Z,16.8
2018-06-05T06:25:16.637Z,16.73
2018-06-05T06:26:25.288Z,16.69
2018-06-05T06:27:34.338Z,16.72
2018-06-05T06:28:43.254Z,16.76
2018-06-05T06:29:52.016Z,16.74
2018-06-05T06:31:00.656Z,16.87
2018-06-05T06:32:09.308Z,16.87
2018-06-05T06:33:17.959Z,16.82
2018-06-05T06:34:26.980Z,16.83
2018-06-05T06:35:35.902Z,16.77
2018-06-05T06:36:44.808Z,16.87
2018-06-05T06:37:53.458Z,16.77
2018-06-05T06:39:02.098Z,16.83
2018-06-05T06:40:10.751Z,16.82
2018-06-05T06:41:19.400Z,16.84
2018-06-05T06:42:28.254Z,16.91
2018-06-05T06:43:37.087Z,16.83
2018-06-05T06:44:45.721Z,16.82
2018-06-05T06:45:54.379Z,16.82
2018-06-05T06:47:03.019Z,16.86
2018-06-05T06:48:11.675Z,16.8
2018-06-05T06:49:20.312Z,16.83
2018-06-05T06:50:28.966Z,16.99
2018-06-05T06:51:37.870Z,16.97
2018-06-05T06:52:46.532Z,16.98
2018-06-05T06:53:55.431Z,17.01
2018-06-05T06:55:04.083Z,17.04
2018-06-05T06:56:12.736Z,17.04
2018-06-05T06:57:21.391Z,17.04
2018-06-05T06:58:30.333Z,17.02
2018-06-05T06:59:38.982Z,17.04
2018-06-05T07:00:47.616Z,17.13
2018-06-05T07:01:56.261Z,17.12
2018-06-05T07:03:04.923Z,17.19
2018-06-05T07:04:13.562Z,17.1
2018-06-05T07:05:22.216Z,17.17
2018-06-05T07:06:30.861Z,17.17
2018-06-05T07:07:39.519Z,17.22
2018-06-05T07:08:48.422Z,17.23
2018-06-05T07:09:57.074Z,17.3
2018-06-05T07:11:05.716Z,17.3
2018-06-05T07:12:14.383Z,17.3
2018-06-05T07:13:23.021Z,17.3
2018-06-05T07:14:31.670Z,17.37
2018-06-05T07:15:40.570Z,17.32
2018-06-05T07:16:49.219Z,17.42
2018-06-05T07:17:57.873Z,17.41
2018-06-05T07:19:06.790Z,17.46
2018-06-05T07:20:15.441Z,17.44
2018-06-05T07:21:24.080Z,17.39
2018-06-05T07:22:32.730Z,17.44
2018-06-05T07:23:41.379Z,17.53
2018-06-05T07:24:50.035Z,17.56
2018-06-05T07:25:58.674Z,17.5
2018-06-05T07:27:07.340Z,17.53
2018-06-05T07:28:15.978Z,17.57
2018-06-05T07:29:24.634Z,17.59
2018-06-05T07:30:33.533Z,17.56
2018-06-05T07:31:42.185Z,17.57
2018-06-05T07:32:51.102Z,17.56
2018-06-05T07:33:59.758Z,17.53
2018-06-05T07:35:08.401Z,17.5
2018-06-05T07:36:17.052Z,17.44
2018-06-05T07:37:25.694Z,17.49
2018-06-05T07:38:34.610Z,17.54
2018-06-05T07:39:43.266Z,17.47
2018-06-05T07:40:51.914Z,17.47
2018-06-05T07:42:00.559Z,17.46
2018-06-05T07:43:09.468Z,17.53
2018-06-05T07:44:18.166Z,17.59
2018-06-05T07:45:27.051Z,17.6
2018-06-05T07:46:35.961Z,17.65
2018-06-05T07:47:44.613Z,17.57
2018-06-05T07:48:53.268Z,17.68
2018-06-05T07:50:02.229Z,17.53
2018-06-05T07:51:11.217Z,17.53
2018-06-05T07:52:20.141Z,17.56
2018-06-05T07:53:28.791Z,17.66
2018-06-05T07:54:37.738Z,17.6
2018-06-05T07:55:46.653Z,17.68
2018-06-05T07:56:55.302Z,17.76
2018-06-05T07:58:03.948Z,17.75
2018-06-05T07:59:12.595Z,17.79
2018-06-05T08:00:21.239Z,17.75
2018-06-05T08:01:30.154Z,17.78
2018-06-05T08:02:38.798Z,17.8
2018-06-05T08:03:47.444Z,17.78
2018-06-05T08:04:56.094Z,17.91
2018-06-05T08:06:04.748Z,17.9
2018-06-05T08:07:13.655Z,17.93
2018-06-05T08:08:22.308Z,17.78
2018-06-05T08:09:30.954Z,17.79
2018-06-05T08:10:39.605Z,17.78
2018-06-05T08:11:48.303Z,17.78
2018-06-05T08:12:56.894Z,17.78
2018-06-05T08:14:05.540Z,17.75
2018-06-05T08:15:14.184Z,17.71
2018-06-05T08:16:22.837Z,17.68
2018-06-05T08:17:31.748Z,17.68
2018-06-05T08:18:40.657Z,17.72
2018-06-05T08:19:49.301Z,17.71
2018-06-05T08:20:57.951Z,17.73
2018-06-05T08:22:06.598Z,17.78
2018-06-05T08:23:15.254Z,17.87
2018-06-05T08:24:24.219Z,17.79
2018-06-05T08:25:32.824Z,17.86
2018-06-05T08:26:41.475Z,17.8
2018-06-05T08:27:50.128Z,17.87
2018-06-05T08:28:58.777Z,17.84
2018-06-05T08:30:07.688Z,17.78
2018-06-05T08:31:17.126Z,17.79
2018-06-05T08:32:25.935Z,17.76
2018-06-05T08:33:34.598Z,17.79
2018-06-05T08:34:43.341Z,17.79
2018-06-05T08:35:51.989Z,17.8
2018-06-05T08:37:00.636Z,17.86
2018-06-05T08:38:09.290Z,17.9
2018-06-05T08:39:17.934Z,18.06
2018-06-05T08:40:26.843Z,18.03
2018-06-05T08:41:35.495Z,17.9
2018-06-05T08:42:44.156Z,17.95
2018-06-05T08:43:53.064Z,17.93
2018-06-05T08:45:01.719Z,17.88
2018-06-05T08:46:10.365Z,18.02
2018-06-05T08:47:19.020Z,17.9
2018-06-05T08:48:27.664Z,17.95
2018-06-05T08:49:36.322Z,18.06
2018-06-05T08:50:44.973Z,18.06
2018-06-05T08:51:53.617Z,18.02
2018-06-05T08:53:02.276Z,18.06
2018-06-05T08:54:11.211Z,18.02
2018-06-05T08:55:20.183Z,17.97
2018-06-05T08:56:28.825Z,18.09
2018-06-05T08:57:37.478Z,18.09
2018-06-05T08:58:46.126Z,18.08
2018-06-05T08:59:54.822Z,17.98
2018-06-05T09:01:03.425Z,18.12
2018-06-05T09:02:12.080Z,18.08
2018-06-05T09:03:20.726Z,18.18
2018-06-05T09:04:29.380Z,18.18
2018-06-05T09:05:38.358Z,18.21
2018-06-05T09:06:47.011Z,18.16
2018-06-05T09:07:55.662Z,18.27
2018-06-05T09:09:04.568Z,18.19
2018-06-05T09:10:13.220Z,18.19
2018-06-05T09:11:21.864Z,18.16
2018-06-05T09:12:30.783Z,18.21
2018-06-05T09:13:39.424Z,18.16
2018-06-05T09:14:48.077Z,18.13
2018-06-05T09:15:56.722Z,18.18
2018-06-05T09:17:05.369Z,18.16
2018-06-05T09:18:14.016Z,18.23
2018-06-05T09:19:22.668Z,18.31
2018-06-05T09:20:31.853Z,18.23
2018-06-05T09:21:41.033Z,18.28
2018-06-05T09:22:49.676Z,18.28
2018-06-05T09:23:58.328Z,18.26
2018-06-05T09:25:06.977Z,18.33
2018-06-05T09:26:15.889Z,18.33
2018-06-05T09:27:24.531Z,18.3
2018-06-05T09:28:33.178Z,18.45
2018-06-05T09:29:41.830Z,18.31
2018-06-05T09:30:50.476Z,18.36
2018-06-05T09:31:59.136Z,18.28
2018-06-05T09:33:08.041Z,18.33
2018-06-05T09:34:17.009Z,18.48
2018-06-05T09:35:25.639Z,18.37
2018-06-05T09:36:34.290Z,18.51
2018-06-05T09:37:42.931Z,18.52
2018-06-05T09:38:51.590Z,18.52
2018-06-05T09:40:00.236Z,18.63
2018-06-05T09:41:08.887Z,18.61
2018-06-05T09:42:17.792Z,18.58
2018-06-05T09:43:26.438Z,18.52
2018-06-05T09:44:35.091Z,18.66
2018-06-05T09:45:43.744Z,18.58
2018-06-05T09:46:52.440Z,18.51
2018-06-05T09:48:01.077Z,18.57
2018-06-05T09:49:09.991Z,18.41
2018-06-05T09:50:18.633Z,18.55
2018-06-05T09:51:27.291Z,18.52
2018-06-05T09:52:35.931Z,18.53
2018-06-05T09:53:44.588Z,18.52
2018-06-05T09:54:53.231Z,18.53
2018-06-05T09:56:01.890Z,18.57
2018-06-05T09:57:10.529Z,18.7
2018-06-05T09:58:19.313Z,18.73
2018-06-05T09:59:27.828Z,18.74
2018-06-05T10:00:36.500Z,18.86
2018-06-05T10:01:45.150Z,18.85
2018-06-05T10:02:53.794Z,18.82
2018-06-05T10:04:02.442Z,18.96
2018-06-05T10:05:11.090Z,18.89
2018-06-05T10:06:19.748Z,18.97
2018-06-05T10:07:28.393Z,18.88
2018-06-05T10:08:37.045Z,18.98
2018-06-05T10:09:45.777Z,18.98
2018-06-05T10:10:54.600Z,19.05
2018-06-05T10:12:03.262Z,19.07
2018-06-05T10:13:11.917Z,19.01
2018-06-05T10:14:20.557Z,19.07
2018-06-05T10:15:29.212Z,19
2018-06-05T10:16:37.861Z,19.07
2018-06-05T10:17:46.514Z,19.05
2018-06-05T10:18:55.153Z,19.12
2018-06-05T10:20:03.805Z,19.17
2018-06-05T10:21:12.461Z,19.17
2018-06-05T10:22:21.120Z,19.12
2018-06-05T10:23:30.035Z,19.17
2018-06-05T10:24:38.674Z,19.08
2018-06-05T10:25:47.332Z,19.11
2018-06-05T10:26:56.246Z,19.16
2018-06-05T10:28:04.904Z,19.11
2018-06-05T10:29:13.549Z,19.17
2018-06-05T10:30:22.195Z,19.12
2018-06-05T10:31:31.109Z,19.11
2018-06-05T10:32:39.751Z,19.15
2018-06-05T10:33:48.410Z,19.11
2018-06-05T10:34:57.072Z,19.09
2018-06-05T10:36:05.722Z,19.16
2018-06-05T10:37:14.366Z,19.19
2018-06-05T10:38:23.016Z,19.15
2018-06-05T10:39:31.670Z,19.23
2018-06-05T10:40:40.585Z,19.35
2018-06-05T10:41:49.245Z,19.49
2018-06-05T10:42:57.886Z,19.62
2018-06-05T10:44:06.805Z,19.7
2018-06-05T10:45:15.447Z,19.74
2018-06-05T10:46:24.391Z,19.89
2018-06-05T10:47:33.045Z,19.93
2018-06-05T10:48:41.963Z,20.12
2018-06-05T10:49:50.610Z,20.24
2018-06-05T10:50:59.271Z,20.22
2018-06-05T10:52:07.922Z,20.19
2018-06-05T10:53:16.563Z,20.11
2018-06-05T10:54:25.475Z,20.18
2018-06-05T10:55:34.135Z,20.3
2018-06-05T10:56:42.782Z,20.18
2018-06-05T10:57:51.432Z,20.22
2018-06-05T10:59:00.088Z,20.3
2018-06-05T11:00:08.729Z,20.37
2018-06-05T11:01:17.390Z,20.3
2018-06-05T11:02:26.295Z,20.33
2018-06-05T11:03:34.950Z,20.22
2018-06-05T11:04:43.593Z,20.27
2018-06-05T11:05:52.252Z,20.17
2018-06-05T11:07:00.901Z,20.3
2018-06-05T11:08:09.553Z,20.32
2018-06-05T11:09:18.193Z,20.36
2018-06-05T11:10:26.853Z,20.4
2018-06-05T11:11:35.766Z,20.37
2018-06-05T11:12:44.442Z,20.33
2018-06-05T11:13:53.062Z,20.33
2018-06-05T11:15:01.981Z,20.32
2018-06-05T11:16:10.634Z,20.37
2018-06-05T11:17:19.289Z,20.34
2018-06-05T11:18:28.208Z,20.34
2018-06-05T11:19:37.110Z,20.39
2018-06-05T11:20:45.768Z,20.37
2018-06-05T11:21:54.412Z,20.3
2018-06-05T11:23:03.344Z,20.3
2018-06-05T11:24:11.986Z,20.26
2018-06-05T11:25:20.640Z,20.24
2018-06-05T11:26:29.285Z,20.36
2018-06-05T11:27:37.943Z,20.33
2018-06-05T11:28:46.589Z,20.24
2018-06-05T11:29:55.240Z,20.24
2018-06-05T11:31:04.436Z,20.29
2018-06-05T11:32:13.090Z,20.26
2018-06-05T11:33:21.999Z,20.24
2018-06-05T11:34:30.653Z,20.19
2018-06-05T11:35:39.562Z,20.33
2018-06-05T11:36:48.241Z,20.26
2018-06-05T11:37:56.865Z,20.19
2018-06-05T11:39:05.518Z,20.18
2018-06-05T11:40:14.173Z,20.18
2018-06-05T11:41:22.818Z,20.17
2018-06-05T11:42:31.473Z,20.29
2018-06-05T11:43:40.384Z,20.33
2018-06-05T11:44:49.035Z,20.56
2018-06-05T11:45:57.682Z,20.55
2018-06-05T11:47:06.335Z,20.58
2018-06-05T11:48:14.990Z,20.64
2018-06-05T11:49:23.644Z,20.66
2018-06-05T11:50:32.293Z,20.49
2018-06-05T11:51:40.948Z,20.36
2018-06-05T11:52:49.597Z,20.21
2018-06-05T11:53:58.268Z,19.97
2018-06-05T11:55:06.906Z,19.87
2018-06-05T11:56:15.551Z,19.85
2018-06-05T11:57:24.204Z,19.99
2018-06-05T11:58:32.855Z,20.02
2018-06-05T11:59:41.780Z,20.03
2018-06-05T12:00:50.511Z,20.08
2018-06-05T12:01:59.078Z,20.18
2018-06-05T12:03:07.729Z,20.26
2018-06-05T12:04:16.383Z,20.42
2018-06-05T12:05:25.030Z,20.6
2018-06-05T12:06:33.686Z,20.74
2018-06-05T12:07:42.336Z,20.85
2018-06-05T12:08:51.250Z,20.9
2018-06-05T12:09:59.898Z,20.88
2018-06-05T12:11:08.637Z,20.9
2018-06-05T12:12:17.562Z,20.93
2018-06-05T12:13:26.281Z,20.89
2018-06-05T12:14:34.934Z,20.93
2018-06-05T12:15:43.584Z,20.86
2018-06-05T12:16:52.387Z,20.78
2018-06-05T12:18:01.033Z,20.95
2018-06-05T12:19:09.688Z,20.77
2018-06-05T12:20:18.606Z,20.75
2018-06-05T12:21:27.254Z,20.77
2018-06-05T12:22:35.906Z,20.89
2018-06-05T12:23:44.561Z,20.78
2018-06-05T12:24:53.211Z,20.82
2018-06-05T12:26:02.132Z,20.86
2018-06-05T12:27:10.778Z,20.9
2018-06-05T12:28:19.430Z,20.98
2018-06-05T12:29:28.118Z,20.96
2018-06-05T12:30:36.863Z,20.89
2018-06-05T12:31:45.516Z,20.78
2018-06-05T12:32:54.159Z,20.77
2018-06-05T12:34:03.079Z,20.75
2018-06-05T12:35:11.724Z,20.68
2018-06-05T12:36:20.392Z,20.75
2018-06-05T12:37:29.292Z,20.68
2018-06-05T12:38:37.948Z,20.9
2018-06-05T12:39:46.595Z,21.01
2018-06-05T12:40:55.277Z,20.86
2018-06-05T12:42:04.188Z,20.93
2018-06-05T12:43:12.838Z,20.93
2018-06-05T12:44:21.486Z,20.98
2018-06-05T12:45:30.410Z,21.14
2018-06-05T12:46:39.060Z,21.14
2018-06-05T12:47:47.704Z,21.14
2018-06-05T12:48:56.354Z,21.17
2018-06-05T12:50:05.264Z,21.23
2018-06-05T12:51:13.923Z,21.25
2018-06-05T12:52:22.570Z,21.3
2018-06-05T12:53:31.226Z,21.26
2018-06-05T12:54:39.868Z,21.25
2018-06-05T12:55:48.528Z,21.41
2018-06-05T12:56:57.434Z,21.25
2018-06-05T12:58:06.093Z,21.23
2018-06-05T12:59:14.738Z,21.2
2018-06-05T13:00:23.664Z,20.98
2018-06-05T13:01:32.310Z,20.89
2018-06-05T13:02:40.964Z,20.71
2018-06-05T13:03:49.613Z,20.64
2018-06-05T13:04:58.527Z,20.53
2018-06-05T13:06:07.449Z,20.52
2018-06-05T13:07:16.372Z,20.44
2018-06-05T13:08:25.030Z,20.59
2018-06-05T13:09:33.669Z,20.63
2018-06-05T13:10:42.324Z,20.64
2018-06-05T13:11:51.037Z,20.83
2018-06-05T13:12:59.633Z,21.03
2018-06-05T13:14:08.279Z,21.01
2018-06-05T13:15:16.936Z,21.07
2018-06-05T13:16:25.580Z,21.13
2018-06-05T13:17:34.272Z,21.03
2018-06-05T13:18:42.882Z,21.1
2018-06-05T13:19:51.534Z,21.17
2018-06-05T13:21:00.183Z,21.08
2018-06-05T13:22:08.844Z,21.03
2018-06-05T13:23:17.493Z,21.04
2018-06-05T13:24:26.137Z,21.26
2018-06-05T13:25:34.793Z,21.26
2018-06-05T13:26:43.702Z,21.29
2018-06-05T13:27:52.629Z,21.32
2018-06-05T13:29:01.284Z,21.38
2018-06-05T13:30:09.937Z,21.33
2018-06-05T13:31:18.584Z,21.33
2018-06-05T13:32:27.240Z,21.41
2018-06-05T13:33:35.893Z,21.43
2018-06-05T13:34:44.558Z,21.53
2018-06-05T13:35:53.470Z,21.59
2018-06-05T13:37:02.388Z,21.68
2018-06-05T13:38:11.037Z,21.78
2018-06-05T13:39:19.688Z,21.81
2018-06-05T13:40:28.336Z,21.68
2018-06-05T13:41:37.017Z,21.72
2018-06-05T13:42:45.643Z,21.69
2018-06-05T13:43:54.926Z,21.69
2018-06-05T13:45:03.890Z,21.6
2018-06-05T13:46:12.799Z,21.59
2018-06-05T13:47:21.452Z,21.65
2018-06-05T13:48:30.380Z,21.53
2018-06-05T13:49:39.037Z,21.45
2018-06-05T13:50:47.686Z,21.56
2018-06-05T13:51:56.335Z,21.56
2018-06-05T13:53:04.988Z,21.53
2018-06-05T13:54:13.645Z,21.53
2018-06-05T13:55:22.556Z,21.56
2018-06-05T13:56:31.480Z,21.58
2018-06-05T13:57:40.134Z,21.59
2018-06-05T13:58:49.062Z,21.6
2018-06-05T13:59:57.978Z,21.69
2018-06-05T14:01:06.627Z,21.66
2018-06-05T14:02:15.278Z,21.68
2018-06-05T14:03:23.928Z,21.78
2018-06-05T14:04:32.582Z,21.8
2018-06-05T14:05:41.233Z,21.84
2018-06-05T14:06:49.886Z,21.75
2018-06-05T14:07:58.532Z,21.66
2018-06-05T14:09:07.563Z,21.63
2018-06-05T14:10:16.131Z,21.47
2018-06-05T14:11:24.784Z,21.54
2018-06-05T14:12:33.696Z,21.41
2018-06-05T14:13:42.362Z,21.44
2018-06-05T14:14:51.011Z,21.44
2018-06-05T14:15:59.674Z,21.38
2018-06-05T14:17:08.327Z,21.4
2018-06-05T14:18:16.974Z,21.45
2018-06-05T14:19:25.632Z,21.41
2018-06-05T14:20:34.542Z,21.14
2018-06-05T14:21:43.462Z,20.9
2018-06-05T14:22:52.104Z,20.71
2018-06-05T14:24:00.762Z,20.74
2018-06-05T14:25:09.412Z,20.82
2018-06-05T14:26:18.061Z,20.93
2018-06-05T14:27:26.717Z,21
2018-06-05T14:28:35.371Z,20.98
2018-06-05T14:29:44.023Z,21.07
2018-06-05T14:30:52.933Z,21.08
2018-06-05T14:32:01.593Z,21.1
2018-06-05T14:33:10.248Z,21.15
2018-06-05T14:34:19.160Z,21.05
2018-06-05T14:35:27.839Z,21.14
2018-06-05T14:36:36.476Z,21.28
2018-06-05T14:37:45.128Z,21.35
2018-06-05T14:38:53.784Z,21.43
2018-06-05T14:40:02.451Z,21.38
2018-06-05T14:41:11.096Z,21.5
2018-06-05T14:42:19.747Z,21.43
2018-06-05T14:43:28.413Z,21.54
2018-06-05T14:44:37.054Z,21.56
2018-06-05T14:45:45.702Z,21.66
2018-06-05T14:46:54.355Z,21.66
2018-06-05T14:48:03.004Z,21.53